Time,TemperatureF,DewpointF,PressureIn,WindDirection,WindDirectionDegrees,WindSpeedMPH,WindSpeedGustMPH,Humidity,HourlyPrecipIn,Conditions,Clouds,dailyrainin,SoftwareType,DateUTC
2013-02-16 00:04:00,24.7,21.7,29.91,SW,217,4.5,6.9,88,0.00,CLR,OVC,0.00,WeatherDisplay:10.37,2013-02-16 09:04:00,
2013-02-16 00:09:00,24.3,21.3,29.91,SW,223,5.0,6.9,88,0.00,CLR,OVC,0.00,WeatherDisplay:10.37,2013-02-16 09:09:00,
2013-02-16 00:15:00,24.7,21.7,29.91,SSW,209,5.4,7.4,88,0.00,CLR,OVC,0.00,WeatherDisplay:10.37,2013-02-16 09:15:00,
2013-02-16 00:20:00,24.3,21.0,29.91,SSW,212,6.4,9.2,87,0.00,CLR,OVC,0.00,WeatherDisplay:10.37,2013-02-16 09:20:00,
2013-02-16 00:25:00,24.7,21.4,29.91,SSW,195,5.3,8.1,87,0.00,CLR,OVC,0.00,WeatherDisplay:10.37,2013-02-16 09:25:00,
2013-02-16 00:30:00,24.4,21.1,29.91,SSW,200,6.0,8.1,87,0.00,CLR,OVC,0.00,WeatherDisplay:10.37,2013-02-16 09:30:00,
2013-02-16 00:35:00,24.4,20.8,29.92,SSW,211,5.0,7.0,86,0.00,CLR,OVC,0.00,WeatherDisplay:10.37,2013-02-16 09:35:00,
2013-02-16 00:40:00,24.9,21.3,29.92,SW,216,5.4,6.9,86,0.00,CLR,OVC,0.00,WeatherDisplay:10.37,2013-02-16 09:40:00,
2013-02-16 00:45:00,24.4,20.8,29.92,SW,224,6.9,9.2,86,0.00,CLR,OVC,0.00,WeatherDisplay:10.37,2013-02-16 09:45:00,
2013-02-16 00:50:00,24.7,21.1,29.92,SSW,213,4.5,5.8,86,0.00,CLR,OVC,0.00,WeatherDisplay:10.37,2013-02-16 09:50:00,
2013-02-16 00:56:00,24.8,20.9,29.92,SW,229,4.5,6.9,85,0.00,CLR,OVC,0.00,WeatherDisplay:10.37,2013-02-16 09:56:00,
2013-02-16 01:01:00,24.7,20.8,29.91,SW,227,4.0,9.2,85,0.00,CLR,OVC,0.00,WeatherDisplay:10.37,2013-02-16 10:01:00,
2013-02-16 01:06:00,24.4,20.3,29.92,WSW,258,3.2,4.6,84,0.00,CLR,OVC,0.00,WeatherDisplay:10.37,2013-02-16 10:06:00,
2013-02-16 01:11:00,23.8,19.7,29.92,WSW,247,3.7,6.9,84,0.00,CLR,OVC,0.00,WeatherDisplay:10.37,2013-02-16 10:11:00,
2013-02-16 01:16:00,23.8,19.4,29.93,SW,219,2.7,4.5,83,0.00,CLR,OVC,0.00,WeatherDisplay:10.37,2013-02-16 10:16:00,
2013-02-16 01:21:00,23.8,19.7,29.93,SW,227,3.4,5.8,84,0.00,CLR,OVC,0.00,WeatherDisplay:10.37,2013-02-16 10:21:00,
2013-02-16 01:26:00,23.6,19.5,29.93,SSW,203,5.3,6.9,84,0.00,CLR,OVC,0.00,WeatherDisplay:10.37,2013-02-16 10:26:00,
2013-02-16 01:31:00,23.5,19.4,29.93,SW,217,6.3,8.1,84,0.00,CLR,OVC,0.00,WeatherDisplay:10.37,2013-02-16 10:31:00,
2013-02-16 01:36:00,23.4,19.3,29.94,SW,219,6.7,8.1,84,0.00,CLR,OVC,0.00,WeatherDisplay:10.37,2013-02-16 10:36:00,
2013-02-16 01:41:00,23.2,19.1,29.94,SSW,212,6.8,9.2,84,0.00,CLR,OVC,0.00,WeatherDisplay:10.37,2013-02-16 10:41:00,
2013-02-16 01:46:00,23.4,19.3,29.94,South,191,7.0,9.2,84,0.00,CLR,OVC,0.00,WeatherDisplay:10.37,2013-02-16 10:46:00,
2013-02-16 01:51:00,23.1,19.0,29.93,SSW,213,8.3,11.5,84,0.00,CLR,OVC,0.00,WeatherDisplay:10.37,2013-02-16 10:51:00,
2013-02-16 01:57:00,23.2,19.1,29.94,SW,215,9.1,10.4,84,0.00,CLR,OVC,0.00,WeatherDisplay:10.37,2013-02-16 10:57:00,
2013-02-16 02:02:00,23.1,18.7,29.94,SW,216,7.7,12.7,83,0.00,CLR,OVC,0.00,WeatherDisplay:10.37,2013-02-16 11:02:00,
2013-02-16 02:07:00,23.1,18.7,29.94,South,188,8.0,12.7,83,0.00,CLR,OVC,0.00,WeatherDisplay:10.37,2013-02-16 11:07:00,
2013-02-16 02:12:00,23.1,18.4,29.94,SW,219,10.6,16.1,82,0.00,CLR,OVC,0.00,WeatherDisplay:10.37,2013-02-16 11:12:00,
2013-02-16 02:17:00,23.3,18.6,29.95,SSW,210,8.2,11.5,82,0.00,CLR,OVC,0.00,WeatherDisplay:10.37,2013-02-16 11:17:00,
2013-02-16 02:22:00,23.3,18.6,29.95,South,184,9.9,16.1,82,0.00,CLR,OVC,0.00,WeatherDisplay:10.37,2013-02-16 11:22:00,
2013-02-16 02:28:00,23.4,18.7,29.95,SSW,209,11.1,18.8,82,0.00,CLR,OVC,0.00,WeatherDisplay:10.37,2013-02-16 11:28:00,
2013-02-16 02:33:00,23.6,18.9,29.95,SSW,202,10.8,16.1,82,0.00,CLR,OVC,0.00,WeatherDisplay:10.37,2013-02-16 11:33:00,
2013-02-16 02:38:00,23.6,18.6,29.95,SW,234,8.7,11.5,81,0.00,CLR,OVC,0.00,WeatherDisplay:10.37,2013-02-16 11:38:00,
2013-02-16 02:43:00,23.2,18.2,29.95,SW,226,9.9,12.7,81,0.00,CLR,OVC,0.00,WeatherDisplay:10.37,2013-02-16 11:43:00,
2013-02-16 02:48:00,23.5,18.5,29.95,SSW,213,10.4,15.0,81,0.00,CLR,OVC,0.00,WeatherDisplay:10.37,2013-02-16 11:48:00,
2013-02-16 02:53:00,23.1,18.1,29.95,SSW,208,10.8,12.7,81,0.00,CLR,OVC,0.00,WeatherDisplay:10.37,2013-02-16 11:53:00,
2013-02-16 02:58:00,22.8,17.6,29.96,South,186,14.6,18.4,80,0.00,CLR,OVC,0.00,WeatherDisplay:10.37,2013-02-16 11:58:00,
2013-02-16 03:04:00,23.1,17.8,29.96,SSW,206,10.2,17.3,80,0.00,CLR,OVC,0.00,WeatherDisplay:10.37,2013-02-16 12:04:00,
2013-02-16 03:09:00,22.9,17.9,29.96,SW,217,9.8,16.1,81,0.00,CLR,OVC,0.00,WeatherDisplay:10.37,2013-02-16 12:09:00,
2013-02-16 03:14:00,22.5,17.5,29.96,SSW,210,13.0,15.0,81,0.00,CLR,OVC,0.00,WeatherDisplay:10.37,2013-02-16 12:14:00,
2013-02-16 03:19:00,22.4,17.5,29.97,SSW,199,12.7,17.3,81,0.00,CLR,OVC,0.00,WeatherDisplay:10.37,2013-02-16 12:19:00,
2013-02-16 03:24:00,22.6,17.9,29.97,SSW,208,9.7,12.7,82,0.00,CLR,OVC,0.00,WeatherDisplay:10.37,2013-02-16 12:24:00,
2013-02-16 03:29:00,22.2,17.5,29.97,SW,215,6.8,10.4,82,0.00,CLR,OVC,0.00,WeatherDisplay:10.37,2013-02-16 12:29:00,
2013-02-16 03:34:00,21.9,17.2,29.97,SSW,208,8.5,11.5,82,0.00,CLR,OVC,0.00,WeatherDisplay:10.37,2013-02-16 12:34:00,
2013-02-16 03:39:00,21.8,17.2,29.97,South,186,9.3,12.7,82,0.00,CLR,OVC,0.00,WeatherDisplay:10.37,2013-02-16 12:39:00,
2013-02-16 03:44:00,21.7,17.1,29.97,SW,219,8.3,11.8,82,0.00,CLR,OVC,0.00,WeatherDisplay:10.37,2013-02-16 12:44:00,
2013-02-16 03:49:00,21.7,17.1,29.97,SSW,212,8.1,10.4,82,0.00,CLR,OVC,0.00,WeatherDisplay:10.37,2013-02-16 12:49:00,
2013-02-16 03:54:00,21.7,17.3,29.97,SW,232,8.2,12.7,83,0.00,CLR,OVC,0.00,WeatherDisplay:10.37,2013-02-16 12:54:00,
2013-02-16 03:59:00,21.6,17.2,29.98,SW,226,6.7,9.2,83,0.00,CLR,OVC,0.00,WeatherDisplay:10.37,2013-02-16 12:59:00,
2013-02-16 04:04:00,20.9,16.5,29.97,SW,216,5.6,6.9,83,0.00,CLR,OVC,0.00,WeatherDisplay:10.37,2013-02-16 13:04:00,
2013-02-16 04:09:00,20.9,16.5,29.97,South,189,7.3,9.2,83,0.00,CLR,OVC,0.00,WeatherDisplay:10.37,2013-02-16 13:09:00,
2013-02-16 04:14:00,21.0,16.6,29.97,WSW,239,4.9,6.9,83,0.00,CLR,OVC,0.00,WeatherDisplay:10.37,2013-02-16 13:14:00,
2013-02-16 04:20:00,20.7,16.4,29.97,SSW,196,5.8,9.2,83,0.00,CLR,OVC,0.00,WeatherDisplay:10.37,2013-02-16 13:20:00,
2013-02-16 04:25:00,20.0,15.7,29.97,SSW,206,4.7,9.2,83,0.00,CLR,OVC,0.00,WeatherDisplay:10.37,2013-02-16 13:25:00,
2013-02-16 04:30:00,20.2,15.9,29.97,WSW,239,6.1,6.1,83,0.00,CLR,OVC,0.00,WeatherDisplay:10.37,2013-02-16 13:30:00,
2013-02-16 04:35:00,20.1,15.8,29.97,SW,215,5.6,8.1,83,0.00,CLR,OVC,0.00,WeatherDisplay:10.37,2013-02-16 13:35:00,
2013-02-16 04:40:00,19.8,15.5,29.97,SSW,211,6.0,9.0,83,0.00,CLR,OVC,0.00,WeatherDisplay:10.37,2013-02-16 13:40:00,
2013-02-16 04:45:00,19.6,15.3,29.97,SW,214,5.0,7.0,83,0.00,CLR,OVC,0.00,WeatherDisplay:10.37,2013-02-16 13:45:00,
2013-02-16 04:50:00,19.8,15.5,29.97,SSW,213,5.0,8.0,83,0.00,CLR,OVC,0.00,WeatherDisplay:10.37,2013-02-16 13:50:00,
2013-02-16 04:55:00,19.6,15.2,29.97,SSW,208,5.0,6.0,83,0.00,CLR,OVC,0.00,WeatherDisplay:10.37,2013-02-16 13:55:00,
2013-02-16 05:00:00,19.5,15.2,29.97,SSW,203,3.0,5.0,83,0.00,CLR,OVC,0.00,WeatherDisplay:10.37,2013-02-16 14:00:00,
2013-02-16 05:05:00,19.2,14.9,29.97,SSW,198,1.0,4.0,83,0.00,CLR,OVC,0.00,WeatherDisplay:10.37,2013-02-16 14:05:00,
2013-02-16 05:10:00,19.0,14.7,29.97,SSW,200,2.0,6.0,83,0.00,CLR,OVC,0.00,WeatherDisplay:10.37,2013-02-16 14:10:00,
2013-02-16 05:15:00,18.5,14.2,29.97,SSW,212,5.0,6.0,83,0.00,CLR,OVC,0.00,WeatherDisplay:10.37,2013-02-16 14:15:00,
2013-02-16 05:20:00,18.0,13.7,29.97,SSW,212,5.0,7.0,83,0.00,CLR,OVC,0.00,WeatherDisplay:10.37,2013-02-16 14:20:00,
2013-02-16 05:25:00,17.5,13.5,29.97,SSW,210,5.0,6.0,84,0.00,CLR,OVC,0.00,WeatherDisplay:10.37,2013-02-16 14:25:00,
2013-02-16 05:30:00,17.5,13.3,29.97,SW,214,3.0,5.0,83,0.00,CLR,OVC,0.00,WeatherDisplay:10.37,2013-02-16 14:30:00,
2013-02-16 05:35:00,17.4,13.1,29.97,SSW,210,2.7,4.6,83,0.00,CLR,OVC,0.00,WeatherDisplay:10.37,2013-02-16 14:35:00,
2013-02-16 05:40:00,17.2,12.9,29.97,SSW,202,3.1,3.5,83,0.00,CLR,OVC,0.00,WeatherDisplay:10.37,2013-02-16 14:40:00,
2013-02-16 05:45:00,16.7,12.4,29.97,SSW,212,3.2,3.5,83,0.00,CLR,OVC,0.00,WeatherDisplay:10.37,2013-02-16 14:45:00,
2013-02-16 05:50:00,16.5,12.2,29.97,SW,223,2.7,3.5,83,0.00,CLR,OVC,0.00,WeatherDisplay:10.37,2013-02-16 14:50:00,
2013-02-16 05:55:00,16.2,11.9,29.97,SSW,213,3.4,4.6,83,0.00,CLR,OVC,0.00,WeatherDisplay:10.37,2013-02-16 14:55:00,
2013-02-16 06:00:00,15.5,11.5,29.97,SE,127,0.0,1.1,84,0.00,CLR,OVC,0.00,WeatherDisplay:10.37,2013-02-16 15:00:00,
2013-02-16 06:05:00,15.4,11.4,29.97,SE,127,0.0,0.0,84,0.00,CLR,OVC,0.00,WeatherDisplay:10.37,2013-02-16 15:05:00,
2013-02-16 06:11:00,14.5,10.5,29.97,SE,127,0.4,1.1,84,0.00,CLR,OVC,0.00,WeatherDisplay:10.37,2013-02-16 15:11:00,
2013-02-16 06:16:00,14.0,10.1,29.98,SE,127,0.0,0.0,84,0.00,CLR,OVC,0.00,WeatherDisplay:10.37,2013-02-16 15:16:00,
2013-02-16 06:21:00,13.9,10.0,29.98,SE,145,1.5,2.3,84,0.00,CLR,OVC,0.00,WeatherDisplay:10.37,2013-02-16 15:21:00,
2013-02-16 06:26:00,13.8,9.9,29.98,SSE,158,1.6,1.6,84,0.00,CLR,OVC,0.00,WeatherDisplay:10.37,2013-02-16 15:26:00,
2013-02-16 06:31:00,13.4,9.5,29.98,SSE,160,1.5,2.3,84,0.00,CLR,OVC,0.00,WeatherDisplay:10.37,2013-02-16 15:31:00,
2013-02-16 06:36:00,12.8,9.1,29.99,South,184,1.2,1.2,85,0.00,CLR,OVC,0.00,WeatherDisplay:10.37,2013-02-16 15:36:00,
2013-02-16 06:41:00,12.4,8.7,29.99,SSE,150,1.9,2.3,85,0.00,CLR,OVC,0.00,WeatherDisplay:10.37,2013-02-16 15:41:00,
2013-02-16 06:46:00,11.6,8.0,29.99,SSE,162,1.0,2.3,85,0.00,CLR,OVC,0.00,WeatherDisplay:10.37,2013-02-16 15:46:00,
2013-02-16 06:51:00,11.2,7.6,29.99,South,169,1.5,1.5,85,0.00,CLR,OVC,0.00,WeatherDisplay:10.37,2013-02-16 15:51:00,
2013-02-16 06:57:00,10.8,7.2,29.99,SSE,167,0.8,1.1,85,0.00,CLR,OVC,0.00,WeatherDisplay:10.37,2013-02-16 15:57:00,
2013-02-16 07:02:00,10.5,7.1,29.99,SSE,165,0.0,0.0,86,0.00,CLR,OVC,0.00,WeatherDisplay:10.37,2013-02-16 16:02:00,
2013-02-16 07:07:00,10.3,6.9,29.99,SSE,165,0.0,0.0,86,0.00,CLR,OVC,0.00,WeatherDisplay:10.37,2013-02-16 16:07:00,
2013-02-16 07:12:00,9.8,6.5,29.99,SSE,147,2.1,2.3,86,0.00,CLR,OVC,0.00,WeatherDisplay:10.37,2013-02-16 16:12:00,
2013-02-16 07:17:00,9.5,6.2,30.00,SSE,165,1.6,2.3,86,0.00,CLR,OVC,0.00,WeatherDisplay:10.37,2013-02-16 16:17:00,
2013-02-16 07:22:00,9.3,6.0,30.00,SSE,161,2.5,2.5,86,0.00,CLR,OVC,0.00,WeatherDisplay:10.37,2013-02-16 16:22:00,
2013-02-16 07:27:00,8.9,5.6,30.00,SE,137,0.7,2.3,86,0.00,CLR,OVC,0.00,WeatherDisplay:10.37,2013-02-16 16:27:00,
2013-02-16 07:32:00,8.1,4.8,30.00,SE,136,0.0,0.0,86,0.00,CLR,OVC,0.00,WeatherDisplay:10.37,2013-02-16 16:32:00,
2013-02-16 07:37:00,8.4,5.1,30.00,SE,136,0.0,0.0,86,0.00,CLR,OVC,0.00,WeatherDisplay:10.37,2013-02-16 16:37:00,
2013-02-16 07:42:00,7.6,4.3,30.00,SE,136,0.0,0.0,86,0.00,CLR,OVC,0.00,WeatherDisplay:10.37,2013-02-16 16:42:00,
2013-02-16 07:47:00,7.7,4.6,30.00,SE,136,0.0,0.0,87,0.00,CLR,OVC,0.00,WeatherDisplay:10.37,2013-02-16 16:47:00,
2013-02-16 07:53:00,7.4,4.3,30.00,SE,136,0.0,0.0,87,0.00,CLR,OVC,0.00,WeatherDisplay:10.37,2013-02-16 16:53:00,
2013-02-16 07:58:00,7.3,4.2,29.99,SE,136,0.0,0.0,87,0.00,CLR,OVC,0.00,WeatherDisplay:10.37,2013-02-16 16:58:00,
2013-02-16 08:03:00,7.2,4.1,30.00,SE,136,0.0,0.0,87,0.00,CLR,OVC,0.00,WeatherDisplay:10.37,2013-02-16 17:03:00,
2013-02-16 08:08:00,7.2,4.1,29.99,SE,136,0.0,0.0,87,0.00,CLR,OVC,0.00,WeatherDisplay:10.37,2013-02-16 17:08:00,
2013-02-16 08:13:00,7.1,4.0,29.99,SE,136,0.0,0.0,87,0.00,CLR,OVC,0.00,WeatherDisplay:10.37,2013-02-16 17:13:00,
2013-02-16 08:18:00,7.1,4.3,29.99,SE,136,0.0,0.0,88,0.00,CLR,OVC,0.00,WeatherDisplay:10.37,2013-02-16 17:18:00,
2013-02-16 08:24:00,6.9,4.1,29.99,SE,136,0.0,0.0,88,0.00,CLR,OVC,0.00,WeatherDisplay:10.37,2013-02-16 17:24:00,
2013-02-16 08:29:00,6.7,3.9,29.99,SE,136,0.0,0.0,88,0.00,CLR,OVC,0.00,WeatherDisplay:10.37,2013-02-16 17:29:00,
2013-02-16 08:34:00,6.7,3.9,29.99,SE,136,0.0,0.0,88,0.00,CLR,OVC,0.00,WeatherDisplay:10.37,2013-02-16 17:34:00,
2013-02-16 08:39:00,6.5,3.7,29.99,SE,136,0.0,0.0,88,0.00,CLR,OVC,0.00,WeatherDisplay:10.37,2013-02-16 17:39:00,
2013-02-16 08:44:00,6.4,3.6,29.99,SE,136,0.0,0.0,88,0.00,CLR,OVC,0.00,WeatherDisplay:10.37,2013-02-16 17:44:00,
2013-02-16 08:49:00,6.6,3.8,29.99,East,86,0.3,1.1,88,0.00,CLR,OVC,0.00,WeatherDisplay:10.37,2013-02-16 17:49:00,
2013-02-16 08:55:00,6.7,3.9,29.99,East,86,0.0,0.0,88,0.00,CLR,OVC,0.00,WeatherDisplay:10.37,2013-02-16 17:55:00,
2013-02-16 09:00:00,6.2,3.4,29.99,East,86,0.0,0.0,88,0.00,CLR,OVC,0.00,WeatherDisplay:10.37,2013-02-16 18:00:00,
2013-02-16 09:05:00,6.0,3.2,29.99,ENE,75,0.0,0.0,88,0.00,CLR,OVC,0.00,WeatherDisplay:10.37,2013-02-16 18:05:00,
2013-02-16 09:10:00,6.0,3.2,29.99,ENE,78,0.0,0.0,88,0.00,CLR,OVC,0.00,WeatherDisplay:10.37,2013-02-16 18:10:00,
2013-02-16 09:15:00,5.8,3.0,29.99,ENE,75,0.0,0.0,88,0.00,CLR,OVC,0.00,WeatherDisplay:10.37,2013-02-16 18:15:00,
2013-02-16 09:20:00,5.6,2.8,29.99,ENE,75,0.0,0.0,88,0.00,CLR,OVC,0.00,WeatherDisplay:10.37,2013-02-16 18:20:00,
2013-02-16 09:25:00,5.7,2.9,29.99,ENE,75,0.0,0.0,88,0.00,CLR,OVC,0.00,WeatherDisplay:10.37,2013-02-16 18:25:00,
2013-02-16 09:30:00,5.7,2.9,29.99,ENE,75,0.0,0.0,88,0.00,CLR,OVC,0.00,WeatherDisplay:10.37,2013-02-16 18:30:00,
2013-02-16 09:35:00,5.6,2.8,29.99,ENE,75,0.0,0.0,88,0.00,CLR,OVC,0.00,WeatherDisplay:10.37,2013-02-16 18:35:00,
2013-02-16 09:40:00,5.6,2.9,29.99,East,82,0.0,2.0,88,0.00,CLR,OVC,0.00,WeatherDisplay:10.37,2013-02-16 18:40:00,
2013-02-16 09:45:00,5.6,2.8,29.99,East,86,1.7,2.3,88,0.00,CLR,OVC,0.00,WeatherDisplay:10.37,2013-02-16 18:45:00,
2013-02-16 09:50:00,5.9,3.1,29.99,ESE,103,0.0,1.1,88,0.00,CLR,OVC,0.00,WeatherDisplay:10.37,2013-02-16 18:50:00,
2013-02-16 09:56:00,5.9,3.1,29.99,ESE,103,1.5,2.3,88,0.00,CLR,OVC,0.00,WeatherDisplay:10.37,2013-02-16 18:56:00,
2013-02-16 10:01:00,5.6,2.8,29.99,ESE,121,0.8,1.3,88,0.00,CLR,OVC,0.00,WeatherDisplay:10.37,2013-02-16 19:01:00,
2013-02-16 10:06:00,5.9,3.1,29.99,ESE,103,0.9,1.1,88,0.00,CLR,OVC,0.00,WeatherDisplay:10.37,2013-02-16 19:06:00,
2013-02-16 10:11:00,5.6,2.8,29.99,SSE,160,0.5,1.1,88,0.00,CLR,OVC,0.00,WeatherDisplay:10.37,2013-02-16 19:11:00,
2013-02-16 10:16:00,5.7,2.9,29.99,SSE,160,0.0,0.0,88,0.00,CLR,OVC,0.00,WeatherDisplay:10.37,2013-02-16 19:16:00,
2013-02-16 10:21:00,5.8,3.0,29.99,SSE,160,0.0,0.0,88,0.00,CLR,OVC,0.00,WeatherDisplay:10.37,2013-02-16 19:21:00,
2013-02-16 10:26:00,6.2,3.7,29.99,SSE,160,0.0,0.0,89,0.00,CLR,OVC,0.00,WeatherDisplay:10.37,2013-02-16 19:26:00,
2013-02-16 10:31:00,6.7,3.9,29.99,SSE,160,0.0,0.0,88,0.00,CLR,OVC,0.00,WeatherDisplay:10.37,2013-02-16 19:31:00,
2013-02-16 10:37:00,7.0,4.4,29.99,SSE,160,0.0,0.0,89,0.00,CLR,OVC,0.00,WeatherDisplay:10.37,2013-02-16 19:37:00,
2013-02-16 10:42:00,7.3,4.7,29.99,SSE,160,0.0,0.0,89,0.00,CLR,OVC,0.00,WeatherDisplay:10.37,2013-02-16 19:42:00,
2013-02-16 10:47:00,7.7,5.1,29.99,SSE,160,0.0,0.0,89,0.00,CLR,OVC,0.00,WeatherDisplay:10.37,2013-02-16 19:47:00,
2013-02-16 10:52:00,7.8,5.2,29.99,SSE,160,0.0,0.0,89,0.01,RA,OVC,0.01,WeatherDisplay:10.37,2013-02-16 19:52:00,
2013-02-16 10:57:00,8.7,6.1,29.99,ESE,102,2.4,3.5,89,0.01,RA,OVC,0.01,WeatherDisplay:10.37,2013-02-16 19:57:00,
2013-02-16 11:02:00,9.6,7.0,29.99,East,86,0.0,1.1,89,0.01,CLR,OVC,0.01,WeatherDisplay:10.37,2013-02-16 20:02:00,
2013-02-16 11:07:00,10.6,8.0,29.99,East,86,0.0,0.0,89,0.01,CLR,OVC,0.01,WeatherDisplay:10.37,2013-02-16 20:07:00,
2013-02-16 11:12:00,12.5,9.9,29.99,East,79,2.3,2.6,89,0.01,CLR,OVC,0.01,WeatherDisplay:10.37,2013-02-16 20:12:00,
2013-02-16 11:18:00,14.1,11.2,29.99,NE,54,2.5,3.2,88,0.01,CLR,OVC,0.01,WeatherDisplay:10.37,2013-02-16 20:18:00,
2013-02-16 11:23:00,16.4,12.9,29.99,NE,54,0.9,1.1,86,0.01,CLR,OVC,0.01,WeatherDisplay:10.37,2013-02-16 20:23:00,
2013-02-16 11:28:00,17.5,13.8,29.99,NE,56,1.8,2.3,85,0.01,CLR,OVC,0.01,WeatherDisplay:10.37,2013-02-16 20:28:00,
2013-02-16 11:33:00,19.0,15.0,30.00,NE,45,2.1,2.3,84,0.01,CLR,OVC,0.01,WeatherDisplay:10.37,2013-02-16 20:33:00,
2013-02-16 11:38:00,19.5,15.2,30.00,ENE,58,0.7,2.3,83,0.01,CLR,OVC,0.01,WeatherDisplay:10.37,2013-02-16 20:38:00,
2013-02-16 11:43:00,20.0,15.4,30.00,NNE,32,2.1,4.6,82,0.01,CLR,OVC,0.01,WeatherDisplay:10.37,2013-02-16 20:43:00,
2013-02-16 11:48:00,20.5,15.6,30.00,NE,52,2.9,3.5,81,0.01,CLR,OVC,0.01,WeatherDisplay:10.37,2013-02-16 20:48:00,
2013-02-16 11:53:00,20.6,15.7,29.99,NE,40,2.4,3.5,81,0.00,CLR,OVC,0.01,WeatherDisplay:10.37,2013-02-16 20:53:00,
2013-02-16 11:58:00,21.0,15.8,29.99,NE,55,1.6,4.6,80,0.00,CLR,OVC,0.01,WeatherDisplay:10.37,2013-02-16 20:58:00,
2013-02-16 12:03:00,21.0,15.5,29.99,NNE,30,2.6,5.8,79,0.00,CLR,OVC,0.01,WeatherDisplay:10.37,2013-02-16 21:03:00,
2013-02-16 12:08:00,21.2,15.4,29.99,ENE,78,4.9,4.9,78,0.00,CLR,OVC,0.01,WeatherDisplay:10.37,2013-02-16 21:08:00,
2013-02-16 12:13:00,21.4,15.6,29.99,ENE,62,2.1,5.8,78,0.00,CLR,OVC,0.01,WeatherDisplay:10.37,2013-02-16 21:13:00,
2013-02-16 12:18:00,21.6,15.8,29.99,NE,51,3.8,6.8,78,0.00,CLR,OVC,0.01,WeatherDisplay:10.37,2013-02-16 21:18:00,
2013-02-16 12:23:00,22.1,15.7,30.00,NE,45,5.0,6.9,76,0.00,CLR,OVC,0.01,WeatherDisplay:10.37,2013-02-16 21:23:00,
2013-02-16 12:28:00,22.2,15.2,29.99,NNE,18,2.7,6.9,74,0.00,CLR,OVC,0.01,WeatherDisplay:10.37,2013-02-16 21:28:00,
2013-02-16 12:33:00,22.7,15.7,29.99,NNE,14,3.2,4.6,74,0.00,CLR,OVC,0.01,WeatherDisplay:10.37,2013-02-16 21:33:00,
2013-02-16 12:39:00,23.1,16.0,29.99,NNE,20,6.6,6.9,74,0.00,CLR,OVC,0.01,WeatherDisplay:10.37,2013-02-16 21:39:00,
2013-02-16 12:44:00,23.1,15.7,29.99,North,1,4.3,6.9,73,0.00,CLR,OVC,0.01,WeatherDisplay:10.37,2013-02-16 21:44:00,
2013-02-16 12:49:00,23.0,15.6,29.98,NNE,13,2.7,3.9,73,0.00,CLR,OVC,0.01,WeatherDisplay:10.37,2013-02-16 21:49:00,
2013-02-16 12:54:00,23.5,16.1,29.98,NNE,23,5.3,5.8,73,0.00,CLR,OVC,0.01,WeatherDisplay:10.37,2013-02-16 21:54:00,
2013-02-16 12:59:00,23.3,15.9,29.98,NNE,23,3.8,6.9,73,0.00,CLR,OVC,0.01,WeatherDisplay:10.37,2013-02-16 21:59:00,
2013-02-16 13:04:00,23.7,16.6,29.98,NE,37,5.2,8.1,74,0.00,CLR,OVC,0.01,WeatherDisplay:10.37,2013-02-16 22:04:00,
2013-02-16 13:09:00,23.7,16.6,29.98,North,350,3.5,5.8,74,0.00,CLR,OVC,0.01,WeatherDisplay:10.37,2013-02-16 22:09:00,
2013-02-16 13:14:00,24.0,16.9,29.99,ENE,62,5.0,8.1,74,0.00,CLR,OVC,0.01,WeatherDisplay:10.37,2013-02-16 22:14:00,
2013-02-16 13:19:00,24.3,16.9,29.98,ENE,58,3.8,6.9,73,0.00,CLR,OVC,0.01,WeatherDisplay:10.37,2013-02-16 22:19:00,
2013-02-16 13:24:00,24.1,16.4,29.98,NE,34,4.4,5.8,72,0.00,CLR,OVC,0.01,WeatherDisplay:10.37,2013-02-16 22:24:00,
2013-02-16 13:29:00,24.4,17.0,29.98,North,11,3.2,4.6,73,0.00,CLR,OVC,0.01,WeatherDisplay:10.37,2013-02-16 22:29:00,
2013-02-16 13:35:00,24.1,16.7,29.98,NE,51,2.0,3.5,73,0.00,CLR,OVC,0.01,WeatherDisplay:10.37,2013-02-16 22:35:00,
2013-02-16 13:40:00,24.6,17.5,29.98,NNE,14,2.5,4.6,74,0.00,CLR,OVC,0.01,WeatherDisplay:10.37,2013-02-16 22:40:00,
2013-02-16 13:45:00,23.9,16.5,29.97,NE,49,1.8,3.5,73,0.00,CLR,OVC,0.01,WeatherDisplay:10.37,2013-02-16 22:45:00,
2013-02-16 13:50:00,24.6,17.5,29.97,ENE,64,2.5,4.6,74,0.00,CLR,OVC,0.01,WeatherDisplay:10.37,2013-02-16 22:50:00,
2013-02-16 13:55:00,24.3,17.2,29.97,NNE,13,2.8,5.8,74,0.00,CLR,OVC,0.01,WeatherDisplay:10.37,2013-02-16 22:55:00,
2013-02-16 14:00:00,24.5,17.4,29.97,ENE,58,2.2,3.5,74,0.00,CLR,OVC,0.01,WeatherDisplay:10.37,2013-02-16 23:00:00,
2013-02-16 14:05:00,24.5,17.4,29.97,North,359,2.7,4.7,74,0.00,CLR,OVC,0.01,WeatherDisplay:10.37,2013-02-16 23:05:00,
2013-02-16 14:10:00,24.5,17.4,29.97,North,8,2.0,6.0,74,0.00,RA,OVC,0.01,WeatherDisplay:10.37,2013-02-16 23:10:00,
2013-02-16 14:15:00,24.8,17.7,29.96,North,4,3.0,6.0,74,0.00,RA,OVC,0.01,WeatherDisplay:10.37,2013-02-16 23:15:00,
2013-02-16 14:20:00,25.0,17.9,29.96,NNE,13,3.0,6.0,74,0.00,RA,OVC,0.01,WeatherDisplay:10.37,2013-02-16 23:20:00,
2013-02-16 14:25:00,24.8,18.0,29.96,North,6,3.0,6.0,75,0.00,RA,OVC,0.01,WeatherDisplay:10.37,2013-02-16 23:25:00,
2013-02-16 14:30:00,24.8,18.0,29.96,North,359,2.0,5.0,75,0.00,RA,OVC,0.01,WeatherDisplay:10.37,2013-02-16 23:30:00,
2013-02-16 14:36:00,24.5,17.7,29.96,NE,38,4.5,4.8,75,0.00,CLR,OVC,0.01,WeatherDisplay:10.37,2013-02-16 23:36:00,
2013-02-16 14:41:00,24.5,17.7,29.95,NNE,18,3.1,4.6,75,0.00,CLR,OVC,0.01,WeatherDisplay:10.37,2013-02-16 23:41:00,
2013-02-16 14:46:00,24.4,17.6,29.95,NE,47,2.8,4.6,75,0.00,CLR,OVC,0.01,WeatherDisplay:10.37,2013-02-16 23:46:00,
2013-02-16 14:51:00,24.3,17.5,29.95,NNW,347,0.8,2.3,75,0.00,CLR,OVC,0.01,WeatherDisplay:10.37,2013-02-16 23:51:00,
2013-02-16 14:56:00,24.1,17.3,29.95,NNE,14,3.2,5.8,75,0.00,CLR,OVC,0.01,WeatherDisplay:10.37,2013-02-16 23:56:00,
2013-02-16 15:01:00,24.3,17.5,29.95,North,4,4.0,5.8,75,0.00,CLR,OVC,0.01,WeatherDisplay:10.37,2013-02-17 00:01:00,
2013-02-16 15:06:00,24.5,18.0,29.95,North,4,2.3,3.5,76,0.00,CLR,OVC,0.01,WeatherDisplay:10.37,2013-02-17 00:06:00,
2013-02-16 15:11:00,24.5,18.0,29.95,North,11,1.9,3.2,76,0.00,CLR,OVC,0.01,WeatherDisplay:10.37,2013-02-17 00:11:00,
2013-02-16 15:16:00,24.6,18.1,29.95,NNW,340,3.7,5.8,76,0.00,CLR,OVC,0.01,WeatherDisplay:10.37,2013-02-17 00:16:00,
2013-02-16 15:21:00,24.7,18.2,29.95,North,356,2.7,3.5,76,0.00,CLR,OVC,0.01,WeatherDisplay:10.37,2013-02-17 00:21:00,
2013-02-16 15:27:00,24.5,18.0,29.95,North,360,3.6,4.6,76,0.00,CLR,OVC,0.01,WeatherDisplay:10.37,2013-02-17 00:27:00,
2013-02-16 15:32:00,24.5,18.0,29.95,NE,42,1.9,3.5,76,0.00,CLR,OVC,0.01,WeatherDisplay:10.37,2013-02-17 00:32:00,
2013-02-16 15:37:00,24.4,17.9,29.94,NNE,20,2.5,4.6,76,0.00,CLR,OVC,0.01,WeatherDisplay:10.37,2013-02-17 00:37:00,
2013-02-16 15:42:00,24.4,17.9,29.94,North,352,0.0,0.0,76,0.00,CLR,OVC,0.01,WeatherDisplay:10.37,2013-02-17 00:42:00,
2013-02-16 15:47:00,24.3,17.8,29.94,NNE,16,1.2,2.3,76,0.00,CLR,OVC,0.01,WeatherDisplay:10.37,2013-02-17 00:47:00,
2013-02-16 15:52:00,24.4,18.2,29.93,NE,52,1.7,3.5,77,0.00,CLR,OVC,0.01,WeatherDisplay:10.37,2013-02-17 00:52:00,
2013-02-16 15:57:00,24.5,18.0,29.93,NE,34,2.7,3.5,76,0.00,CLR,OVC,0.01,WeatherDisplay:10.37,2013-02-17 00:57:00,
2013-02-16 16:02:00,24.2,17.7,29.92,NE,54,2.3,3.5,76,0.00,CLR,OVC,0.01,WeatherDisplay:10.37,2013-02-17 01:02:00,
2013-02-16 16:07:00,24.3,18.1,29.92,North,357,1.0,2.3,77,0.00,CLR,OVC,0.01,WeatherDisplay:10.37,2013-02-17 01:07:00,
2013-02-16 16:12:00,24.4,18.2,29.92,North,11,3.7,4.6,77,0.00,CLR,OVC,0.01,WeatherDisplay:10.37,2013-02-17 01:12:00,
2013-02-16 16:17:00,24.4,18.2,29.92,NNE,17,2.2,2.3,77,0.00,CLR,OVC,0.01,WeatherDisplay:10.37,2013-02-17 01:17:00,
2013-02-16 16:22:00,24.2,18.0,29.91,North,7,4.3,5.8,77,0.00,CLR,OVC,0.01,WeatherDisplay:10.37,2013-02-17 01:22:00,
2013-02-16 16:27:00,24.0,17.8,29.91,NNW,340,3.6,6.9,77,0.00,CLR,OVC,0.01,WeatherDisplay:10.37,2013-02-17 01:27:00,
2013-02-16 16:33:00,24.1,18.2,29.92,NNW,343,4.6,5.8,78,0.00,CLR,OVC,0.01,WeatherDisplay:10.37,2013-02-17 01:33:00,
2013-02-16 16:38:00,23.6,17.7,29.92,North,352,4.2,5.8,78,0.00,CLR,OVC,0.01,WeatherDisplay:10.37,2013-02-17 01:38:00,
2013-02-16 16:43:00,23.4,17.6,29.92,North,0,2.3,4.6,78,0.00,CLR,OVC,0.01,WeatherDisplay:10.37,2013-02-17 01:43:00,
2013-02-16 16:48:00,23.3,17.7,29.91,NNE,13,4.5,6.9,79,0.00,CLR,OVC,0.01,WeatherDisplay:10.37,2013-02-17 01:48:00,
2013-02-16 16:53:00,23.2,17.9,29.91,North,356,2.3,5.8,80,0.00,CLR,OVC,0.01,WeatherDisplay:10.37,2013-02-17 01:53:00,
2013-02-16 16:58:00,23.2,17.9,29.92,NNE,13,3.1,4.6,80,0.00,CLR,OVC,0.01,WeatherDisplay:10.37,2013-02-17 01:58:00,
2013-02-16 17:04:00,23.1,17.8,29.91,NNE,14,3.7,5.8,80,0.00,CLR,OVC,0.01,WeatherDisplay:10.37,2013-02-17 02:04:00,
2013-02-16 17:09:00,23.3,18.0,29.91,North,350,4.1,5.8,80,0.00,CLR,OVC,0.01,WeatherDisplay:10.37,2013-02-17 02:09:00,
2013-02-16 17:14:00,23.3,18.3,29.91,NNE,31,6.2,10.1,81,0.00,CLR,OVC,0.01,WeatherDisplay:10.37,2013-02-17 02:14:00,
2013-02-16 17:19:00,22.9,17.9,29.91,NNW,330,5.1,6.9,81,0.00,CLR,OVC,0.01,WeatherDisplay:10.37,2013-02-17 02:19:00,
2013-02-16 17:24:00,22.8,18.1,29.91,NNW,335,4.8,9.2,82,0.00,CLR,OVC,0.01,WeatherDisplay:10.37,2013-02-17 02:24:00,
2013-02-16 17:29:00,22.5,17.8,29.91,North,11,3.7,5.8,82,0.00,CLR,OVC,0.01,WeatherDisplay:10.37,2013-02-17 02:29:00,
2013-02-16 17:34:00,22.0,17.3,29.91,NW,315,2.6,5.8,82,0.00,CLR,OVC,0.01,WeatherDisplay:10.37,2013-02-17 02:34:00,
2013-02-16 17:39:00,21.6,17.2,29.91,NNE,24,3.9,4.6,83,0.00,CLR,OVC,0.01,WeatherDisplay:10.37,2013-02-17 02:39:00,
2013-02-16 17:45:00,21.5,17.1,29.90,NNW,340,4.9,6.3,83,0.00,CLR,OVC,0.01,WeatherDisplay:10.37,2013-02-17 02:45:00,
2013-02-16 17:50:00,21.1,16.7,29.90,NNW,339,6.6,9.2,83,0.00,CLR,OVC,0.01,WeatherDisplay:10.37,2013-02-17 02:50:00,
2013-02-16 17:55:00,20.8,16.7,29.90,NNE,18,9.2,11.5,84,0.00,CLR,OVC,0.01,WeatherDisplay:10.37,2013-02-17 02:55:00,
2013-02-16 18:00:00,20.1,16.0,29.90,NNE,31,6.1,8.3,84,0.00,CLR,OVC,0.01,WeatherDisplay:10.37,2013-02-17 03:00:00,
2013-02-16 18:05:00,19.8,15.7,29.90,North,360,4.2,8.1,84,0.00,CLR,OVC,0.01,WeatherDisplay:10.37,2013-02-17 03:05:00,
2013-02-16 18:10:00,20.0,16.2,29.90,NNE,24,3.0,7.0,85,0.00,RA,OVC,0.01,WeatherDisplay:10.37,2013-02-17 03:10:00,
2013-02-16 18:15:00,20.0,16.2,29.90,NE,36,2.0,8.0,85,0.00,RA,OVC,0.01,WeatherDisplay:10.37,2013-02-17 03:15:00,
2013-02-16 18:20:00,20.0,16.2,29.90,NNE,28,2.0,3.0,85,0.00,RA,OVC,0.01,WeatherDisplay:10.37,2013-02-17 03:20:00,
2013-02-16 18:25:00,20.0,16.2,29.89,NNE,17,3.0,6.0,85,0.00,RA,OVC,0.01,WeatherDisplay:10.37,2013-02-17 03:25:00,
2013-02-16 18:30:00,19.8,16.0,29.89,NNE,18,6.0,8.0,85,0.00,RA,OVC,0.01,WeatherDisplay:10.37,2013-02-17 03:30:00,
2013-02-16 18:35:00,19.8,16.3,29.89,NNE,22,3.0,6.0,86,0.00,RA,OVC,0.01,WeatherDisplay:10.37,2013-02-17 03:35:00,
2013-02-16 18:40:00,20.1,16.6,29.89,NE,35,2.9,4.8,86,0.00,CLR,OVC,0.01,WeatherDisplay:10.37,2013-02-17 03:40:00,
2013-02-16 18:46:00,20.1,16.6,29.88,NNE,17,5.9,9.2,86,0.00,CLR,OVC,0.01,WeatherDisplay:10.37,2013-02-17 03:46:00,
2013-02-16 18:51:00,20.1,16.6,29.88,NNE,14,3.8,6.3,86,0.00,CLR,OVC,0.01,WeatherDisplay:10.37,2013-02-17 03:51:00,
2013-02-16 18:56:00,20.1,16.6,29.88,North,357,2.2,2.5,86,0.00,CLR,OVC,0.01,WeatherDisplay:10.37,2013-02-17 03:56:00,
2013-02-16 19:01:00,19.8,16.3,29.88,North,357,5.1,6.3,86,0.00,CLR,OVC,0.01,WeatherDisplay:10.37,2013-02-17 04:01:00,
2013-02-16 19:06:00,19.7,16.2,29.89,NNE,27,1.6,3.5,86,0.00,CLR,OVC,0.01,WeatherDisplay:10.37,2013-02-17 04:06:00,
2013-02-16 19:11:00,19.7,16.2,29.88,North,1,1.8,3.2,86,0.00,CLR,OVC,0.01,WeatherDisplay:10.37,2013-02-17 04:11:00,
2013-02-16 19:16:00,19.9,16.7,29.88,NE,41,1.4,3.5,87,0.00,CLR,OVC,0.01,WeatherDisplay:10.37,2013-02-17 04:16:00,
2013-02-16 19:21:00,20.0,16.8,29.88,North,3,3.3,3.5,87,0.00,CLR,OVC,0.01,WeatherDisplay:10.37,2013-02-17 04:21:00,
2013-02-16 19:26:00,20.2,17.0,29.88,NE,44,1.7,3.5,87,0.00,CLR,OVC,0.01,WeatherDisplay:10.37,2013-02-17 04:26:00,
2013-02-16 19:31:00,20.0,16.8,29.87,NE,35,1.7,3.5,87,0.00,CLR,OVC,0.01,WeatherDisplay:10.37,2013-02-17 04:31:00,
2013-02-16 19:36:00,19.9,16.7,29.87,NE,37,3.5,4.6,87,0.00,CLR,OVC,0.01,WeatherDisplay:10.37,2013-02-17 04:36:00,
2013-02-16 19:41:00,19.7,16.5,29.87,NNW,346,3.7,4.6,87,0.00,CLR,OVC,0.01,WeatherDisplay:10.37,2013-02-17 04:41:00,
2013-02-16 19:46:00,20.1,16.9,29.86,NNE,13,3.5,5.8,87,0.00,CLR,OVC,0.01,WeatherDisplay:10.37,2013-02-17 04:46:00,
2013-02-16 19:52:00,19.8,16.6,29.86,NNE,20,2.5,3.5,87,0.00,CLR,OVC,0.01,WeatherDisplay:10.37,2013-02-17 04:52:00,
2013-02-16 19:57:00,20.0,17.0,29.86,North,360,5.0,6.6,88,0.00,CLR,OVC,0.01,WeatherDisplay:10.37,2013-02-17 04:57:00,
2013-02-16 20:00:00,20.1,17.1,29.86,ENE,72,4.5,9.2,88,0.00,CLR,OVC,0.01,WeatherDisplay:10.37,2013-02-17 05:00:00,
2013-02-16 20:01:00,20.3,17.3,29.86,North,360,2.3,7.3,88,0.00,CLR,OVC,0.01,WeatherDisplay:10.37,2013-02-17 05:01:00,
2013-02-16 20:06:00,19.9,16.9,29.86,NE,51,1.8,6.9,88,0.00,CLR,OVC,0.01,WeatherDisplay:10.37,2013-02-17 05:06:00,
2013-02-16 20:11:00,20.2,17.2,29.85,NNE,30,4.0,5.8,88,0.00,CLR,OVC,0.01,WeatherDisplay:10.37,2013-02-17 05:11:00,
2013-02-16 20:17:00,20.1,17.1,29.85,NNE,17,4.2,5.8,88,0.00,CLR,OVC,0.01,WeatherDisplay:10.37,2013-02-17 05:17:00,
2013-02-16 20:22:00,20.5,17.5,29.85,NNE,13,2.4,3.5,88,0.00,CLR,OVC,0.01,WeatherDisplay:10.37,2013-02-17 05:22:00,
2013-02-16 20:27:00,20.4,17.4,29.85,NNE,17,0.8,2.3,88,0.00,CLR,OVC,0.01,WeatherDisplay:10.37,2013-02-17 05:27:00,
2013-02-16 20:32:00,19.8,16.8,29.84,North,4,6.0,9.2,88,0.00,CLR,OVC,0.01,WeatherDisplay:10.37,2013-02-17 05:32:00,
2013-02-16 20:37:00,20.1,17.4,29.84,North,10,8.5,10.4,89,0.00,CLR,OVC,0.01,WeatherDisplay:10.37,2013-02-17 05:37:00,
2013-02-16 20:43:00,20.3,17.6,29.84,NE,52,2.5,5.8,89,0.00,CLR,OVC,0.01,WeatherDisplay:10.37,2013-02-17 05:43:00,
2013-02-16 20:48:00,20.2,17.2,29.84,NNE,17,3.6,5.4,88,0.00,CLR,OVC,0.01,WeatherDisplay:10.37,2013-02-17 05:48:00,
2013-02-16 20:53:00,19.8,16.8,29.84,NNE,32,4.9,6.9,88,0.00,CLR,OVC,0.01,WeatherDisplay:10.37,2013-02-17 05:53:00,
2013-02-16 20:58:00,20.1,17.1,29.84,ENE,78,4.2,8.1,88,0.00,CLR,OVC,0.01,WeatherDisplay:10.37,2013-02-17 05:58:00,
2013-02-16 21:03:00,20.2,17.5,29.83,North,6,7.2,9.6,89,0.00,CLR,OVC,0.01,WeatherDisplay:10.37,2013-02-17 06:03:00,
2013-02-16 21:08:00,20.2,17.5,29.84,South,188,2.5,4.6,89,0.00,CLR,OVC,0.01,WeatherDisplay:10.37,2013-02-17 06:08:00,
2013-02-16 21:14:00,20.1,17.4,29.83,NNE,23,5.4,8.3,89,0.00,CLR,OVC,0.01,WeatherDisplay:10.37,2013-02-17 06:14:00,
2013-02-16 21:19:00,20.1,17.4,29.83,ESE,113,4.4,8.1,89,0.00,CLR,OVC,0.01,WeatherDisplay:10.37,2013-02-17 06:19:00,
2013-02-16 21:24:00,20.0,17.3,29.83,ENE,76,6.0,9.2,89,0.00,CLR,OVC,0.01,WeatherDisplay:10.37,2013-02-17 06:24:00,
2013-02-16 21:29:00,20.2,17.5,29.83,North,3,3.4,6.9,89,0.00,CLR,OVC,0.01,WeatherDisplay:10.37,2013-02-17 06:29:00,
2013-02-16 21:34:00,20.3,17.6,29.82,ESE,107,5.5,6.9,89,0.00,CLR,OVC,0.01,WeatherDisplay:10.37,2013-02-17 06:34:00,
2013-02-16 21:39:00,20.5,17.8,29.82,NNE,31,4.6,6.9,89,0.00,CLR,OVC,0.01,WeatherDisplay:10.37,2013-02-17 06:39:00,
2013-02-16 21:44:00,20.3,17.8,29.82,NW,326,4.9,6.9,90,0.00,CLR,OVC,0.01,WeatherDisplay:10.37,2013-02-17 06:44:00,
2013-02-16 21:50:00,20.2,17.5,29.83,North,4,3.1,5.8,89,0.00,CLR,OVC,0.01,WeatherDisplay:10.37,2013-02-17 06:50:00,
2013-02-16 21:55:00,20.3,17.6,29.82,North,7,3.7,5.8,89,0.00,CLR,OVC,0.01,WeatherDisplay:10.37,2013-02-17 06:55:00,
2013-02-16 22:00:00,20.2,17.5,29.81,North,360,8.0,9.2,89,0.00,CLR,OVC,0.01,WeatherDisplay:10.37,2013-02-17 07:00:00,
2013-02-16 22:05:00,19.8,17.3,29.81,North,8,7.7,8.0,90,0.00,CLR,OVC,0.01,WeatherDisplay:10.37,2013-02-17 07:05:00,
2013-02-16 22:10:00,20.0,17.5,29.82,NNE,18,7.2,9.2,90,0.00,CLR,OVC,0.01,WeatherDisplay:10.37,2013-02-17 07:10:00,
2013-02-16 22:15:00,19.8,17.4,29.82,North,7,3.0,9.0,90,0.00,RA,OVC,0.01,WeatherDisplay:10.37,2013-02-17 07:15:00,
2013-02-16 22:20:00,19.8,17.4,29.82,North,8,6.0,7.0,90,0.00,RA,OVC,0.01,WeatherDisplay:10.37,2013-02-17 07:20:00,
2013-02-16 22:25:00,19.7,17.2,29.82,North,3,5.0,8.0,90,0.00,RA,OVC,0.01,WeatherDisplay:10.37,2013-02-17 07:25:00,
2013-02-16 22:30:00,19.7,17.2,29.82,North,6,6.0,8.0,90,0.00,RA,OVC,0.01,WeatherDisplay:10.37,2013-02-17 07:30:00,
2013-02-16 22:35:00,19.6,17.2,29.81,North,9,2.0,10.0,90,0.00,RA,OVC,0.01,WeatherDisplay:10.37,2013-02-17 07:35:00,
2013-02-16 22:40:00,19.6,17.1,29.81,North,3,8.0,10.0,90,0.00,RA,OVC,0.01,WeatherDisplay:10.37,2013-02-17 07:40:00,
2013-02-16 22:45:00,19.5,17.1,29.81,North,8,6.0,10.0,90,0.00,RA,OVC,0.01,WeatherDisplay:10.37,2013-02-17 07:45:00,
2013-02-16 22:50:00,19.5,17.3,29.81,NNE,14,4.3,9.2,91,0.00,CLR,OVC,0.01,WeatherDisplay:10.37,2013-02-17 07:50:00,
2013-02-16 22:55:00,19.3,17.1,29.80,East,83,4.5,6.9,91,0.00,CLR,OVC,0.01,WeatherDisplay:10.37,2013-02-17 07:55:00,
2013-02-16 23:00:00,18.9,16.7,29.80,North,4,5.9,8.1,91,0.00,CLR,OVC,0.01,WeatherDisplay:10.37,2013-02-17 08:00:00,
2013-02-16 23:05:00,19.1,16.9,29.80,ENE,66,4.1,8.1,91,0.00,CLR,OVC,0.01,WeatherDisplay:10.37,2013-02-17 08:05:00,
2013-02-16 23:11:00,19.3,17.1,29.79,NNE,20,5.2,8.1,91,0.00,CLR,OVC,0.01,WeatherDisplay:10.37,2013-02-17 08:11:00,
2013-02-16 23:16:00,19.2,17.0,29.78,NNE,27,6.9,10.4,91,0.00,CLR,OVC,0.01,WeatherDisplay:10.37,2013-02-17 08:16:00,
2013-02-16 23:21:00,19.1,16.9,29.78,NNE,21,6.8,10.4,91,0.00,CLR,OVC,0.01,WeatherDisplay:10.37,2013-02-17 08:21:00,
2013-02-16 23:26:00,19.4,17.2,29.79,North,8,5.0,6.7,91,0.00,CLR,OVC,0.01,WeatherDisplay:10.37,2013-02-17 08:26:00,
2013-02-16 23:31:00,19.4,17.2,29.79,ENE,68,1.5,2.9,91,0.00,CLR,OVC,0.01,WeatherDisplay:10.37,2013-02-17 08:31:00,
2013-02-16 23:36:00,19.1,17.2,29.77,North,7,5.8,9.2,92,0.00,CLR,OVC,0.01,WeatherDisplay:10.37,2013-02-17 08:36:00,
2013-02-16 23:41:00,18.9,16.7,29.77,North,3,6.8,9.2,91,0.00,CLR,OVC,0.01,WeatherDisplay:10.37,2013-02-17 08:41:00,
2013-02-16 23:47:00,19.2,17.0,29.77,North,357,4.9,8.0,91,0.00,CLR,OVC,0.01,WeatherDisplay:10.37,2013-02-17 08:47:00,
2013-02-16 23:52:00,18.7,16.8,29.77,NNW,335,4.2,9.2,92,0.00,CLR,OVC,0.01,WeatherDisplay:10.37,2013-02-17 08:52:00,
2013-02-16 23:57:00,19.1,16.9,29.77,North,349,3.7,3.9,91,0.00,CLR,OVC,0.01,WeatherDisplay:10.37,2013-02-17 08:57:00,